Time;durP1;ratioP1;P1;durP2;ratioP2;P2;SDS_P1;SDS_P2;PMS_P1;PMS_P2;Temp;Humidity;BMP_temperature;BMP_pressure;BME280_temperature;BME280_humidity;BME280_pressure;Samples;Min_cycle;Max_cycle;Signal;HPM_P1;HPM_P2
2022/07/08 00:01:14;;;;;;;6.97;6.30;;;15.70;99.90;;;;;;5051451;28;20296;-68
2022/07/08 00:03:39;;;;;;;8.03;5.73;;;15.70;99.90;;;;;;5051389;28;20624;-68
2022/07/08 00:06:05;;;;;;;8.80;5.33;;;15.60;99.90;;;;;;5051761;28;20178;-68
2022/07/08 00:08:31;;;;;;;6.10;5.53;;;15.60;99.90;;;;;;5051477;28;20183;-68
2022/07/08 00:10:57;;;;;;;6.57;5.80;;;15.70;99.90;;;;;;5050469;28;20262;-68
2022/07/08 00:13:23;;;;;;;7.67;5.83;;;15.70;99.90;;;;;;5051468;28;20241;-68
2022/07/08 00:15:48;;;;;;;6.07;5.37;;;15.70;99.90;;;;;;5050237;28;20179;-68
2022/07/08 00:18:14;;;;;;;7.80;5.83;;;15.70;99.90;;;;;;5051477;28;20262;-68
2022/07/08 00:20:40;;;;;;;6.33;5.80;;;15.60;99.90;;;;;;5051576;28;20167;-68
2022/07/08 00:23:05;;;;;;;9.17;5.60;;;15.70;99.90;;;;;;5050789;28;20220;-68
2022/07/08 00:25:31;;;;;;;10.07;6.73;;;15.70;99.90;;;;;;5050767;28;20249;-68
2022/07/08 00:27:57;;;;;;;10.80;6.47;;;15.60;99.90;;;;;;5051343;28;20183;-68
2022/07/08 00:30:22;;;;;;;10.23;6.67;;;15.60;99.90;;;;;;5051482;28;20177;-68
2022/07/08 00:32:48;;;;;;;8.90;5.87;;;15.50;99.90;;;;;;5049785;28;20210;-68
2022/07/08 00:35:13;;;;;;;9.53;5.93;;;15.50;99.90;;;;;;5049842;28;20179;-68
2022/07/08 00:37:39;;;;;;;8.83;6.20;;;15.50;99.90;;;;;;5051324;28;20171;-68
2022/07/08 00:40:05;;;;;;;6.87;5.37;;;15.40;99.90;;;;;;5050940;28;20253;-68
2022/07/08 00:42:31;;;;;;;11.50;6.33;;;15.40;99.90;;;;;;5051213;28;20206;-68
2022/07/08 00:44:56;;;;;;;9.07;6.80;;;15.50;99.90;;;;;;5051077;28;20253;-68
2022/07/08 00:47:22;;;;;;;11.30;5.53;;;15.30;99.90;;;;;;5050105;28;20175;-68
2022/07/08 00:49:50;;;;;;;6.23;5.40;;;15.30;99.90;;;;;;5049959;28;20547;-67
2022/07/08 00:52:16;;;;;;;7.43;5.57;;;15.20;99.90;;;;;;5049872;28;20183;-68
2022/07/08 00:54:42;;;;;;;10.13;5.97;;;15.10;99.90;;;;;;5049700;28;20236;-68
2022/07/08 00:57:08;;;;;;;9.37;5.80;;;15.00;99.90;;;;;;5051198;28;20250;-67
2022/07/08 00:59:33;;;;;;;7.80;5.27;;;15.00;99.90;;;;;;5051114;28;20269;-68
2022/07/08 01:01:59;;;;;;;10.43;5.53;;;15.00;99.90;;;;;;5051055;28;20198;-68
2022/07/08 01:04:25;;;;;;;6.70;5.73;;;15.00;99.90;;;;;;5048971;28;20281;-68
2022/07/08 01:06:51;;;;;;;7.27;5.33;;;15.00;99.90;;;;;;5049835;28;20640;-68
2022/07/08 01:09:16;;;;;;;7.37;5.60;;;15.00;99.90;;;;;;5050803;28;20190;-68
2022/07/08 01:11:45;;;;;;;8.90;6.10;;;14.90;99.90;;;;;;5051054;28;20658;-68
2022/07/08 01:14:12;;;;;;;7.27;5.93;;;14.90;99.90;;;;;;5030874;28;20196;-68
2022/07/08 01:16:37;;;;;;;11.77;6.63;;;14.90;99.90;;;;;;5031289;28;20514;-68
2022/07/08 01:19:03;;;;;;;9.30;6.23;;;14.90;99.90;;;;;;5049674;28;20179;-68
2022/07/08 01:21:29;;;;;;;8.50;5.63;;;15.00;99.90;;;;;;5051063;28;20206;-68
2022/07/08 01:23:54;;;;;;;8.37;5.60;;;15.00;99.90;;;;;;5050377;28;20207;-68
2022/07/08 01:26:20;;;;;;;9.27;6.00;;;15.00;99.90;;;;;;5049636;28;20171;-68
2022/07/08 01:28:46;;;;;;;8.03;5.77;;;15.00;99.90;;;;;;5049538;28;20197;-68
2022/07/08 01:31:11;;;;;;;12.90;6.77;;;15.00;99.90;;;;;;5049546;28;20171;-68
2022/07/08 01:33:38;;;;;;;12.97;5.93;;;15.10;99.90;;;;;;5050395;28;20217;-68
2022/07/08 01:36:04;;;;;;;7.33;5.73;;;15.10;99.90;;;;;;5053044;28;20191;-68
2022/07/08 01:38:30;;;;;;;11.10;5.67;;;15.10;99.90;;;;;;5053715;28;20183;-67
2022/07/08 01:40:55;;;;;;;8.40;5.33;;;15.20;99.90;;;;;;5054569;28;20170;-68
2022/07/08 01:43:21;;;;;;;12.00;6.63;;;15.20;99.90;;;;;;5053922;28;20206;-67
2022/07/08 01:45:47;;;;;;;8.50;6.27;;;15.20;99.90;;;;;;5054385;28;20167;-68
2022/07/08 01:48:13;;;;;;;5.57;5.07;;;15.20;99.90;;;;;;5054221;28;20174;-68
2022/07/08 01:50:38;;;;;;;8.13;5.90;;;15.20;99.90;;;;;;5054446;28;20706;-68
2022/07/08 01:53:04;;;;;;;6.00;5.40;;;15.20;99.90;;;;;;5052601;28;20195;-68
2022/07/08 01:55:29;;;;;;;8.77;5.80;;;15.20;99.90;;;;;;5054331;28;20285;-68
2022/07/08 01:57:55;;;;;;;10.03;6.67;;;15.10;99.90;;;;;;5054363;28;20645;-68
2022/07/08 02:00:21;;;;;;;6.43;5.80;;;15.10;99.90;;;;;;5054095;28;20644;-68
2022/07/08 02:02:47;;;;;;;6.63;6.00;;;15.10;99.90;;;;;;5052658;28;20241;-68
2022/07/08 02:05:13;;;;;;;6.07;5.67;;;15.00;99.90;;;;;;5053711;28;20654;-68
2022/07/08 02:07:40;;;;;;;8.30;5.60;;;15.00;99.90;;;;;;5052723;28;20563;-67
2022/07/08 02:10:06;;;;;;;12.07;5.70;;;14.90;99.90;;;;;;5052727;28;20589;-68
2022/07/08 02:12:33;;;;;;;7.97;5.60;;;14.90;99.90;;;;;;5052364;28;20686;-67
2022/07/08 02:15:06;;;;;;;7.17;6.13;;;14.80;99.90;;;;;;5052104;28;20202;-68
2022/07/08 02:17:38;;;;;;;6.37;5.73;;;14.80;99.90;;;;;;5053764;28;20171;-68
2022/07/08 02:20:10;;;;;;;10.83;6.37;;;14.80;99.90;;;;;;5052578;28;20210;-68
2022/07/08 02:22:36;;;;;;;6.43;5.80;;;14.80;99.90;;;;;;5053242;28;20252;-68
2022/07/08 02:25:03;;;;;;;6.30;5.70;;;14.70;99.90;;;;;;5053409;28;20171;-69
2022/07/08 02:27:29;;;;;;;8.93;5.17;;;14.70;99.90;;;;;;5053778;28;20171;-69
2022/07/08 02:29:54;;;;;;;11.90;6.20;;;14.70;99.90;;;;;;5053584;28;20171;-69
2022/07/08 02:32:20;;;;;;;8.93;6.10;;;14.70;99.90;;;;;;5051875;28;20187;-68
2022/07/08 02:34:46;;;;;;;10.20;5.63;;;14.70;99.90;;;;;;5053366;28;20261;-69
2022/07/08 02:37:13;;;;;;;7.90;5.80;;;14.70;99.90;;;;;;5053294;28;20167;-69
2022/07/08 02:39:39;;;;;;;9.97;6.23;;;14.60;99.90;;;;;;5053394;28;20181;-68
2022/07/08 02:42:05;;;;;;;7.37;6.67;;;14.60;99.90;;;;;;5053386;28;20686;-68
2022/07/08 02:44:30;;;;;;;6.40;5.67;;;14.60;99.90;;;;;;5053013;28;20195;-69
2022/07/08 02:46:56;;;;;;;8.20;5.60;;;14.50;99.90;;;;;;5052817;28;20167;-69
2022/07/08 02:49:22;;;;;;;6.07;5.47;;;14.50;99.90;;;;;;5051885;28;20232;-69
2022/07/08 02:51:48;;;;;;;9.27;6.07;;;14.50;99.90;;;;;;5053361;28;20171;-69
2022/07/08 02:54:14;;;;;;;10.00;6.13;;;14.50;99.90;;;;;;5052591;28;20200;-69
2022/07/08 02:56:39;;;;;;;9.37;6.37;;;14.50;99.90;;;;;;5052355;28;20174;-69
2022/07/08 02:59:05;;;;;;;7.67;5.90;;;14.50;99.90;;;;;;5052676;28;20231;-68
2022/07/08 03:01:31;;;;;;;7.40;6.60;;;14.50;99.90;;;;;;5053287;28;20686;-69
2022/07/08 03:03:57;;;;;;;7.63;6.73;;;14.50;99.90;;;;;;5052429;28;20191;-69
2022/07/08 03:06:23;;;;;;;6.10;5.57;;;14.40;99.90;;;;;;5053078;28;20163;-69
2022/07/08 03:08:48;;;;;;;8.80;5.70;;;14.50;99.90;;;;;;5052746;28;20182;-68
2022/07/08 03:11:14;;;;;;;11.80;6.13;;;14.40;99.90;;;;;;5052841;28;20182;-69
2022/07/08 03:13:40;;;;;;;6.30;5.70;;;14.50;99.90;;;;;;5052604;28;20553;-69
2022/07/08 03:16:06;;;;;;;7.60;6.50;;;14.50;99.90;;;;;;5052802;28;20181;-69
2022/07/08 03:18:32;;;;;;;6.47;5.87;;;14.60;99.90;;;;;;5052570;28;20209;-69
2022/07/08 03:20:58;;;;;;;10.90;6.10;;;14.70;99.90;;;;;;5053073;28;20167;-68
2022/07/08 03:23:24;;;;;;;8.10;5.90;;;14.70;99.90;;;;;;5052039;28;20221;-69
2022/07/08 03:25:49;;;;;;;6.77;5.77;;;14.70;99.90;;;;;;5051388;28;20175;-68
2022/07/08 03:28:15;;;;;;;10.50;5.73;;;14.70;99.90;;;;;;5051054;28;20183;-69
2022/07/08 03:30:41;;;;;;;10.80;5.93;;;14.60;99.90;;;;;;5052609;28;20633;-69
2022/07/08 03:33:07;;;;;;;6.27;5.70;;;14.60;99.90;;;;;;5050573;28;20297;-68
2022/07/08 03:35:32;;;;;;;5.57;5.07;;;14.60;99.90;;;;;;5052295;28;20175;-69
2022/07/08 03:37:58;;;;;;;7.43;6.13;;;14.60;99.90;;;;;;5052364;28;20181;-69
2022/07/08 03:43:08;;;;;;;7.37;5.77;;;14.70;99.90;;;;;;5051999;28;20289;-69
2022/07/08 03:45:34;;;;;;;7.17;6.47;;;14.60;99.90;;;;;;5051806;28;20257;-68
2022/07/08 03:48:00;;;;;;;8.13;6.43;;;14.60;99.90;;;;;;5050890;28;20185;-69
2022/07/08 03:50:26;;;;;;;7.50;6.00;;;14.60;99.90;;;;;;5051895;28;20174;-68
2022/07/08 03:52:52;;;;;;;10.67;7.13;;;14.50;99.90;;;;;;5052044;28;20248;-69
2022/07/08 03:55:21;;;;;;;11.47;6.67;;;14.40;99.90;;;;;;5051519;28;20187;-68
2022/07/08 03:57:47;;;;;;;11.33;6.70;;;14.30;99.90;;;;;;5050476;28;20553;-69
2022/07/08 04:00:13;;;;;;;7.03;6.33;;;14.30;99.90;;;;;;5050873;28;20190;-69
2022/07/08 04:02:39;;;;;;;7.87;6.90;;;14.30;99.90;;;;;;5051734;28;20698;-69
2022/07/08 04:05:05;;;;;;;13.07;6.50;;;14.20;99.90;;;;;;5051267;28;20181;-69
2022/07/08 04:07:32;;;;;;;7.57;5.83;;;14.20;99.90;;;;;;5051942;28;20174;-69
2022/07/08 04:09:57;;;;;;;6.77;5.90;;;14.10;99.90;;;;;;5051850;28;20183;-68
2022/07/08 04:12:23;;;;;;;8.87;6.30;;;14.20;99.90;;;;;;5051831;28;20174;-69
2022/07/08 04:14:48;;;;;;;8.50;5.70;;;14.30;99.90;;;;;;5049934;28;20233;-69
2022/07/08 04:17:14;;;;;;;7.17;5.67;;;14.30;99.90;;;;;;5051918;28;20201;-69
2022/07/08 04:19:40;;;;;;;9.63;5.70;;;14.30;99.90;;;;;;5051726;28;20170;-69
2022/07/08 04:22:05;;;;;;;7.73;5.97;;;14.30;99.90;;;;;;5050252;28;20202;-69
2022/07/08 04:24:31;;;;;;;8.07;6.27;;;14.40;99.90;;;;;;5049825;28;20229;-69
2022/07/08 04:26:56;;;;;;;8.07;6.37;;;14.50;99.90;;;;;;5051678;28;20167;-69
2022/07/08 04:29:22;;;;;;;7.60;7.00;;;14.60;99.90;;;;;;5050091;28;20190;-69
2022/07/08 04:31:48;;;;;;;10.73;6.13;;;14.60;99.90;;;;;;5051711;28;20168;-69
2022/07/08 04:34:13;;;;;;;8.33;6.17;;;14.60;99.90;;;;;;5051336;28;20288;-70
2022/07/08 04:36:39;;;;;;;6.23;5.73;;;14.60;99.90;;;;;;5050259;28;20179;-71
2022/07/08 04:39:04;;;;;;;11.43;6.93;;;14.70;99.90;;;;;;5050084;28;20186;-70
2022/07/08 04:41:30;;;;;;;11.67;6.37;;;14.70;99.90;;;;;;5050289;28;20290;-70
2022/07/08 04:43:56;;;;;;;10.03;6.77;;;14.70;99.90;;;;;;5050995;28;20241;-70
2022/07/08 04:46:21;;;;;;;7.30;6.50;;;14.70;99.90;;;;;;5051520;28;20175;-70
2022/07/08 04:48:47;;;;;;;11.17;6.73;;;14.70;99.90;;;;;;5051194;28;20194;-71
2022/07/08 04:51:12;;;;;;;6.60;5.97;;;14.70;99.90;;;;;;5050073;28;20182;-70
2022/07/08 04:53:38;;;;;;;8.93;5.93;;;14.80;99.90;;;;;;5051073;28;20202;-71
2022/07/08 04:56:04;;;;;;;5.93;5.53;;;15.00;99.90;;;;;;5050001;28;20593;-69
2022/07/08 04:58:30;;;;;;;8.93;6.50;;;15.10;99.90;;;;;;5051222;28;20184;-69
2022/07/08 05:00:56;;;;;;;8.23;5.73;;;15.20;99.90;;;;;;5049935;28;20205;-70
2022/07/08 05:03:21;;;;;;;10.27;6.10;;;15.50;99.90;;;;;;5050657;28;20236;-70
2022/07/08 05:05:47;;;;;;;11.27;6.63;;;15.60;99.90;;;;;;5051115;28;20206;-70
2022/07/08 05:08:13;;;;;;;7.23;6.33;;;15.80;99.90;;;;;;5051120;28;20190;-70
2022/07/08 05:10:39;;;;;;;8.47;7.57;;;16.00;99.90;;;;;;5052887;28;20170;-70
2022/07/08 05:13:07;;;;;;;6.83;5.73;;;16.10;99.90;;;;;;5054968;28;20252;-70
2022/07/08 05:15:32;;;;;;;8.77;6.00;;;16.30;99.90;;;;;;5054627;28;20174;-70
2022/07/08 05:17:58;;;;;;;8.93;5.80;;;16.30;99.90;;;;;;5053728;28;20266;-69
2022/07/08 05:20:24;;;;;;;6.83;6.30;;;16.40;99.90;;;;;;5055211;28;20700;-70
2022/07/08 05:22:49;;;;;;;6.00;5.40;;;16.70;99.90;;;;;;5054634;28;20256;-70
2022/07/08 05:25:15;;;;;;;7.40;5.93;;;17.00;99.90;;;;;;5053282;28;20285;-70
2022/07/08 05:27:41;;;;;;;8.10;5.60;;;17.20;99.90;;;;;;5053647;28;20209;-70
2022/07/08 05:30:09;;;;;;;7.00;6.07;;;17.30;99.90;;;;;;5053708;28;20175;-70
2022/07/08 05:32:35;;;;;;;6.17;5.10;;;17.50;99.90;;;;;;5054433;28;20305;-71
2022/07/08 05:35:05;;;;;;;8.23;5.90;;;17.40;99.90;;;;;;5053280;28;20175;-70
2022/07/08 05:37:31;;;;;;;8.50;6.23;;;17.50;99.90;;;;;;5053356;28;20213;-69
2022/07/08 05:39:57;;;;;;;6.40;5.90;;;17.50;99.90;;;;;;5054649;28;20175;-70
2022/07/08 05:42:23;;;;;;;7.03;5.10;;;17.50;99.90;;;;;;5054473;28;20202;-69
2022/07/08 05:44:49;;;;;;;8.97;5.67;;;17.60;99.90;;;;;;5054360;28;20179;-71
2022/07/08 05:47:14;;;;;;;7.50;5.90;;;17.70;99.90;;;;;;5054222;28;20193;-71
2022/07/08 05:49:43;;;;;;;5.13;4.63;;;17.90;99.90;;;;;;5054644;28;20174;-71
2022/07/08 05:52:09;;;;;;;5.97;5.37;;;18.10;99.90;;;;;;5054294;28;20182;-70
2022/07/08 05:54:35;;;;;;;11.17;5.20;;;18.30;99.90;;;;;;5054185;28;20191;-68
2022/07/08 05:57:01;;;;;;;5.37;4.53;;;18.50;99.90;;;;;;5052879;28;20189;-68
2022/07/08 05:59:28;;;;;;;7.47;5.17;;;18.80;99.90;;;;;;5053223;28;20178;-68
2022/07/08 06:01:54;;;;;;;5.93;4.40;;;19.20;99.90;;;;;;5054170;28;20622;-68
2022/07/08 06:04:19;;;;;;;6.50;4.60;;;19.20;99.90;;;;;;5053919;28;20191;-68
2022/07/08 06:06:45;;;;;;;7.13;4.57;;;19.50;99.90;;;;;;5054141;28;20182;-68
2022/07/08 06:09:11;;;;;;;7.60;4.97;;;19.70;99.90;;;;;;5053932;28;20179;-71
2022/07/08 06:11:37;;;;;;;6.63;4.47;;;19.70;99.90;;;;;;5052640;28;20266;-71
2022/07/08 06:14:03;;;;;;;6.53;4.97;;;19.90;99.90;;;;;;5053405;28;20281;-69
2022/07/08 06:16:29;;;;;;;4.37;4.10;;;20.00;99.90;;;;;;5052212;28;20687;-69
2022/07/08 06:18:54;;;;;;;7.47;4.83;;;20.20;99.90;;;;;;5053773;28;20210;-67
2022/07/08 06:21:20;;;;;;;4.97;4.43;;;20.40;99.90;;;;;;5052911;28;20601;-68
2022/07/08 06:23:46;;;;;;;8.05;4.75;;;20.80;99.90;;;;;;5053575;28;20202;-69
2022/07/08 06:26:11;;;;;;;5.93;4.33;;;21.00;99.90;;;;;;5053705;28;20183;-69
2022/07/08 06:28:37;;;;;;;6.20;4.53;;;20.90;99.90;;;;;;5052386;28;20175;-69
2022/07/08 06:31:03;;;;;;;4.68;4.28;;;20.90;99.90;;;;;;5054066;28;20182;-68
2022/07/08 06:33:28;;;;;;;6.07;4.80;;;20.80;99.90;;;;;;5051949;28;20218;-69
2022/07/08 06:35:54;;;;;;;5.68;3.97;;;20.80;99.90;;;;;;5052173;28;20175;-68
2022/07/08 06:38:20;;;;;;;5.30;4.00;;;21.00;99.90;;;;;;5053685;28;20179;-69
2022/07/08 06:40:45;;;;;;;6.45;4.07;;;21.20;99.90;;;;;;5053517;28;20636;-70
2022/07/08 06:43:11;;;;;;;4.57;4.07;;;21.20;99.90;;;;;;5054966;28;20211;-69
2022/07/08 06:45:36;;;;;;;6.13;4.22;;;21.00;99.90;;;;;;5052745;28;20175;-69
2022/07/08 06:48:02;;;;;;;6.28;4.38;;;21.00;99.90;;;;;;5053839;28;20594;-69
2022/07/08 06:50:29;;;;;;;4.53;3.63;;;21.30;99.90;;;;;;5053405;28;20662;-68
2022/07/08 06:52:55;;;;;;;6.20;4.15;;;21.60;99.90;;;;;;5053910;28;20615;-69
2022/07/08 06:55:21;;;;;;;4.65;3.63;;;21.70;99.90;;;;;;5053269;28;20423;-68
2022/07/08 06:57:47;;;;;;;7.88;4.55;;;22.10;99.90;;;;;;5052280;28;20279;-69
2022/07/08 07:00:13;;;;;;;3.90;3.55;;;21.90;99.90;;;;;;5055156;28;20242;-69
2022/07/08 07:02:39;;;;;;;4.15;3.40;;;21.90;99.90;;;;;;5051813;28;20221;-69
2022/07/08 07:05:05;;;;;;;6.13;4.07;;;22.00;99.90;;;;;;5051811;28;20179;-68
2022/07/08 07:07:31;;;;;;;5.20;3.88;;;21.30;99.90;;;;;;5052639;28;20183;-68
2022/07/08 07:09:57;;;;;;;5.63;4.30;;;20.30;99.90;;;;;;5052959;28;20233;-68
2022/07/08 07:12:22;;;;;;;6.63;4.30;;;19.80;99.90;;;;;;5052462;28;20596;-71
2022/07/08 07:14:48;;;;;;;7.20;4.40;;;19.60;99.90;;;;;;5051976;28;20232;-69
2022/07/08 07:17:18;;;;;;;6.17;4.00;;;19.40;99.90;;;;;;5052377;28;20183;-67
2022/07/08 07:19:44;;;;;;;5.90;4.20;;;19.70;99.90;;;;;;5051437;28;20186;-70
2022/07/08 07:22:10;;;;;;;7.00;4.70;;;20.50;99.90;;;;;;5050886;28;20199;-68
2022/07/08 07:24:35;;;;;;;4.68;4.00;;;20.90;99.90;;;;;;5052009;28;20266;-68
2022/07/08 07:27:01;;;;;;;4.45;3.92;;;21.60;99.90;;;;;;5050599;28;20182;-68
2022/07/08 07:29:27;;;;;;;4.45;3.50;;;22.40;99.90;;;;;;5052223;28;20240;-67
2022/07/08 07:31:52;;;;;;;7.88;4.47;;;22.60;99.90;;;;;;5052066;28;20632;-69
2022/07/08 07:34:18;;;;;;;4.10;3.42;;;22.70;99.90;;;;;;5051338;28;20214;-68
2022/07/08 07:36:44;;;;;;;5.53;3.83;;;22.50;99.90;;;;;;5048749;28;20183;-67
2022/07/08 07:39:09;;;;;;;4.25;3.85;;;22.30;99.90;;;;;;5051849;28;20183;-67
2022/07/08 07:41:39;;;;;;;7.00;3.93;;;21.90;99.90;;;;;;5051918;28;20206;-67
2022/07/08 07:44:05;;;;;;;6.95;4.22;;;21.60;99.90;;;;;;5051001;28;20554;-67
2022/07/08 07:46:31;;;;;;;6.07;4.27;;;21.00;99.90;;;;;;5049323;28;20170;-67
2022/07/08 07:48:57;;;;;;;8.53;4.50;;;20.80;99.90;;;;;;5051844;28;20200;-67
2022/07/08 07:51:23;;;;;;;5.43;4.93;;;20.70;99.90;;;;;;5050675;28;20201;-70
2022/07/08 07:53:48;;;;;;;5.30;3.90;;;20.80;99.90;;;;;;5051859;28;20193;-69
2022/07/08 07:56:14;;;;;;;5.90;4.22;;;21.10;99.90;;;;;;5050658;28;20179;-67
2022/07/08 07:58:40;;;;;;;5.22;4.82;;;21.30;99.90;;;;;;5050705;28;20175;-68
2022/07/08 08:01:07;;;;;;;6.68;4.07;;;21.20;99.90;;;;;;5050557;28;20658;-70
2022/07/08 08:03:32;;;;;;;12.20;4.18;;;21.30;99.90;;;;;;5050109;28;20630;-70
2022/07/08 08:05:59;;;;;;;6.25;4.22;;;21.70;99.90;;;;;;5031793;28;20175;-68
2022/07/08 08:08:26;;;;;;;8.02;3.80;;;22.20;99.90;;;;;;5031934;28;20221;-67
2022/07/08 08:10:52;;;;;;;10.95;4.10;;;22.10;99.90;;;;;;5032110;28;20641;-68
2022/07/08 08:13:18;;;;;;;6.43;4.00;;;22.40;99.90;;;;;;5040465;28;20214;-68
2022/07/08 08:15:44;;;;;;;5.82;3.40;;;23.00;99.90;;;;;;5050937;28;20183;-68
2022/07/08 08:18:09;;;;;;;3.83;3.47;;;23.60;99.90;;;;;;5046437;28;20175;-69
2022/07/08 08:20:36;;;;;;;5.20;3.40;;;24.00;99.90;;;;;;5049890;28;20183;-67
2022/07/08 08:23:01;;;;;;;5.18;3.50;;;24.30;99.90;;;;;;5049735;28;20256;-68
2022/07/08 08:25:27;;;;;;;4.40;3.65;;;24.50;99.90;;;;;;5050989;28;20171;-68
2022/07/08 08:27:54;;;;;;;9.65;3.63;;;24.50;99.90;;;;;;5049141;28;20600;-67
2022/07/08 08:30:20;;;;;;;7.20;4.35;;;24.30;99.90;;;;;;5051161;28;20652;-67
2022/07/08 08:32:46;;;;;;;4.18;3.78;;;23.60;99.90;;;;;;5049014;28;20241;-67
2022/07/08 08:35:12;;;;;;;5.57;4.53;;;23.10;99.90;;;;;;5050716;28;20202;-67
2022/07/08 08:37:37;;;;;;;4.65;4.00;;;22.60;99.90;;;;;;5051488;28;20626;-67
2022/07/08 08:40:05;;;;;;;4.45;4.05;;;22.80;99.90;;;;;;5049683;28;20187;-67
2022/07/08 08:42:32;;;;;;;6.97;4.25;;;22.60;99.90;;;;;;5048039;28;20622;-67
2022/07/08 08:44:58;;;;;;;4.50;4.03;;;22.20;99.90;;;;;;5050409;28;20175;-67
2022/07/08 08:47:29;;;;;;;6.35;3.90;;;22.10;99.90;;;;;;5051129;28;20774;-67
2022/07/08 08:50:53;;;;;;;4.82;3.53;;;22.00;99.90;;;;;;5049646;28;20180;-67
2022/07/08 08:52:49;;;;;;;5.78;3.85;;;22.40;99.90;;;;;;5050815;28;20707;-67
2022/07/08 08:55:27;;;;;;;10.73;4.53;;;23.00;99.90;;;;;;5049327;28;20191;-67
2022/07/08 08:57:57;;;;;;;3.80;3.42;;;23.50;99.90;;;;;;5050902;28;20269;-67
2022/07/08 09:00:24;;;;;;;8.15;4.75;;;24.20;99.90;;;;;;5050202;28;20170;-68
2022/07/08 09:02:50;;;;;;;4.85;3.97;;;24.60;99.90;;;;;;5049273;28;20207;-68
2022/07/08 09:05:16;;;;;;;5.88;3.78;;;25.20;99.90;;;;;;5049104;28;20177;-67
2022/07/08 09:07:43;;;;;;;7.38;3.78;;;25.10;99.90;;;;;;5050803;28;20637;-68
2022/07/08 09:10:09;;;;;;;9.57;4.28;;;24.50;99.90;;;;;;5050820;28;20186;-67
2022/07/08 09:12:35;;;;;;;4.25;3.30;;;24.70;99.90;;;;;;5050546;28;20213;-68
2022/07/08 09:15:01;;;;;;;8.32;4.07;;;24.70;99.90;;;;;;5048593;28;20178;-67
2022/07/08 09:17:27;;;;;;;4.13;3.75;;;25.10;99.90;;;;;;5049274;28;20179;-67
2022/07/08 09:19:53;;;;;;;5.43;3.53;;;25.40;99.90;;;;;;5049279;28;20202;-67
2022/07/08 09:22:22;;;;;;;6.30;4.32;;;25.40;99.90;;;;;;5050464;28;20218;-67
2022/07/08 09:24:48;;;;;;;4.25;3.83;;;26.00;99.90;;;;;;5048759;28;20185;-67
2022/07/08 09:27:14;;;;;;;4.47;3.78;;;26.30;99.90;;;;;;5050668;28;20179;-67
2022/07/08 09:29:55;;;;;;;8.18;4.00;;;25.50;99.90;;;;;;5049905;28;20185;-68
2022/07/08 09:32:21;;;;;;;4.78;3.78;;;25.20;99.90;;;;;;5049467;28;20174;-69
2022/07/08 09:34:47;;;;;;;4.38;3.97;;;24.80;99.90;;;;;;5049129;28;20186;-68
2022/07/08 09:37:18;;;;;;;6.68;3.92;;;24.20;99.90;;;;;;5050750;28;20270;-69
2022/07/08 09:39:44;;;;;;;7.80;3.90;;;24.00;99.90;;;;;;5050190;28;20523;-69
2022/07/08 09:42:11;;;;;;;4.63;3.33;;;24.10;99.90;;;;;;5049074;28;20203;-69
2022/07/08 09:44:37;;;;;;;5.40;3.10;;;24.50;99.90;;;;;;5048744;28;20294;-69
2022/07/08 09:47:11;;;;;;;4.07;3.70;;;25.00;99.90;;;;;;5050517;28;20229;-69
2022/07/08 09:49:47;;;;;;;5.03;3.63;;;25.50;99.90;;;;;;5050379;28;20174;-68
2022/07/08 09:52:23;;;;;;;3.95;3.53;;;25.80;99.90;;;;;;5049789;28;20644;-68
2022/07/08 09:55:03;;;;;;;4.90;3.38;;;25.80;99.90;;;;;;5049945;28;20228;-69
2022/07/08 09:57:29;;;;;;;5.82;3.65;;;25.60;99.90;;;;;;5051880;28;20174;-68
2022/07/08 09:59:56;;;;;;;8.00;4.10;;;25.50;99.90;;;;;;5053867;28;20217;-68
2022/07/08 10:02:21;;;;;;;7.90;3.33;;;25.60;99.90;;;;;;5052772;28;20198;-68
2022/07/08 10:04:50;;;;;;;5.88;3.63;;;26.10;99.90;;;;;;5053485;28;20182;-69
2022/07/08 10:07:16;;;;;;;5.85;3.38;;;26.20;99.90;;;;;;5053940;28;20186;-69
2022/07/08 10:09:42;;;;;;;6.47;3.65;;;26.30;99.90;;;;;;5053845;28;20542;-69
2022/07/08 10:12:12;;;;;;;4.22;3.83;;;26.10;99.90;;;;;;5052318;28;20238;-70
2022/07/08 10:14:38;;;;;;;3.92;3.63;;;26.10;99.90;;;;;;5054037;28;20171;-69
2022/07/08 10:17:07;;;;;;;4.05;3.65;;;26.30;99.90;;;;;;5053479;28;20554;-69
2022/07/08 10:19:38;;;;;;;6.63;3.53;;;26.30;99.90;;;;;;5053758;28;20174;-67
2022/07/08 10:22:06;;;;;;;8.98;3.55;;;25.80;99.90;;;;;;5053384;28;20679;-69
2022/07/08 10:24:36;;;;;;;3.72;3.05;;;25.80;99.90;;;;;;5053416;28;20203;-69
2022/07/08 10:27:02;;;;;;;5.50;3.50;;;26.20;99.90;;;;;;5052096;28;20224;-69
2022/07/08 10:29:29;;;;;;;7.05;3.95;;;26.80;99.90;;;;;;5052462;28;20179;-69
2022/07/08 10:31:55;;;;;;;3.47;3.10;;;27.30;99.90;;;;;;5051942;28;20179;-69
2022/07/08 10:34:33;;;;;;;5.22;3.70;;;27.40;99.90;;;;;;5060097;22;20640;-68
2022/07/08 10:37:01;;;;;;;3.85;3.42;;;27.50;99.90;;;;;;5033646;28;20632;-67
2022/07/08 10:39:31;;;;;;;5.50;3.55;;;27.10;99.90;;;;;;5033327;28;20180;-67
2022/07/08 10:41:57;;;;;;;3.95;3.55;;;26.50;99.90;;;;;;5033489;28;20227;-68
2022/07/08 10:44:45;;;;;;;5.15;3.25;;;26.20;99.90;;;;;;5031765;28;20195;-67
2022/07/08 10:47:28;;;;;;;4.88;3.50;;;26.40;99.90;;;;;;5031911;28;20245;-67
2022/07/08 10:50:06;;;;;;;4.22;3.80;;;26.50;99.90;;;;;;5033286;28;20210;-68
2022/07/08 10:52:38;;;;;;;3.45;3.25;;;26.30;99.90;;;;;;5013558;28;20176;-69
2022/07/08 10:55:24;;;;;;;3.50;3.30;;;26.30;99.90;;;;;;5017759;28;20278;-68
2022/07/08 10:57:57;;;;;;;4.30;3.85;;;26.40;99.90;;;;;;5033087;28;20760;-66
2022/07/08 11:00:23;;;;;;;5.75;3.20;;;26.90;99.90;;;;;;5031644;28;20193;-66
2022/07/08 11:02:50;;;;;;;7.35;3.90;;;27.80;99.90;;;;;;5032386;28;20207;-68
2022/07/08 11:05:41;;;;;;;3.72;3.45;;;28.10;99.90;;;;;;5032547;28;20203;-67
2022/07/08 11:08:19;;;;;;;5.95;3.17;;;28.00;99.90;;;;;;5032382;28;20214;-67
2022/07/08 11:10:45;;;;;;;4.47;4.05;;;28.30;99.90;;;;;;5032990;28;20235;-68
2022/07/08 11:13:11;;;;;;;5.95;3.95;;;28.20;99.90;;;;;;5032566;28;20215;-67
2022/07/08 11:15:37;;;;;;;4.10;3.72;;;27.80;99.90;;;;;;5032734;28;20175;-68
2022/07/08 11:18:03;;;;;;;5.43;3.92;;;27.80;99.90;;;;;;5031002;28;20198;-67
2022/07/08 11:20:33;;;;;;;5.32;4.05;;;27.40;99.90;;;;;;5031638;28;20179;-67
2022/07/08 11:23:04;;;;;;;5.47;3.78;;;27.30;99.90;;;;;;5032125;28;20573;-67
2022/07/08 11:25:30;;;;;;;5.13;3.20;;;27.30;99.90;;;;;;5032460;28;20163;-67
2022/07/08 11:27:56;;;;;;;6.13;4.05;;;27.00;99.90;;;;;;5031876;28;20171;-66
2022/07/08 11:30:22;;;;;;;4.50;4.03;;;27.30;99.90;;;;;;5032244;28;20187;-67
2022/07/08 11:32:49;;;;;;;7.10;3.90;;;27.30;99.90;;;;;;5032119;28;20170;-67
2022/07/08 11:35:17;;;;;;;7.10;4.18;;;27.10;99.90;;;;;;5032465;28;20597;-66
2022/07/08 11:37:43;;;;;;;6.10;4.10;;;26.90;99.90;;;;;;5032599;28;20194;-67
2022/07/08 11:40:11;;;;;;;7.15;4.18;;;26.50;99.90;;;;;;5032006;28;20187;-67
2022/07/08 11:42:37;;;;;;;3.97;3.65;;;26.20;99.90;;;;;;5031318;28;20203;-66
2022/07/08 11:45:05;;;;;;;5.38;3.53;;;26.00;99.90;;;;;;5031840;28;20167;-67
2022/07/08 11:47:30;;;;;;;4.07;3.40;;;26.10;99.90;;;;;;5031986;28;20171;-67
2022/07/08 11:49:56;;;;;;;8.48;3.38;;;26.50;99.90;;;;;;5032010;28;20198;-68
2022/07/08 11:52:22;;;;;;;5.00;4.03;;;26.90;99.90;;;;;;5032007;28;20238;-67
2022/07/08 11:54:48;;;;;;;4.75;3.75;;;27.30;99.90;;;;;;5031941;28;20295;-67
2022/07/08 11:57:17;;;;;;;3.72;2.97;;;27.60;99.90;;;;;;5031955;28;20199;-68
2022/07/08 11:59:45;;;;;;;5.63;3.97;;;27.90;99.90;;;;;;5032059;28;20673;-68
2022/07/08 12:02:11;;;;;;;4.43;3.90;;;28.60;99.90;;;;;;5031191;28;20302;-67
2022/07/08 12:04:37;;;;;;;6.35;4.30;;;28.80;99.90;;;;;;5031615;28;20282;-67
2022/07/08 12:07:25;;;;;;;4.25;3.80;;;28.20;99.90;;;;;;5031677;28;20589;-67
2022/07/08 12:09:55;;;;;;;7.90;3.63;;;27.50;99.90;;;;;;5031893;28;20186;-67
2022/07/08 12:12:22;;;;;;;5.05;3.55;;;26.80;99.90;;;;;;5031968;28;20172;-67
2022/07/08 12:14:49;;;;;;;7.20;4.00;;;26.70;99.90;;;;;;5031221;28;20199;-67
2022/07/08 12:17:30;;;;;;;6.05;4.30;;;26.70;99.90;;;;;;5031652;28;20258;-68
2022/07/08 12:19:56;;;;;;;4.68;3.80;;;26.90;99.90;;;;;;5031075;28;20544;-66
2022/07/08 12:23:01;;;;;;;5.88;4.68;;;27.00;99.90;;;;;;5031596;28;20203;-67
2022/07/08 12:25:27;;;;;;;8.05;4.25;;;26.80;99.90;;;;;;5028832;28;20218;-67
2022/07/08 12:27:58;;;;;;;4.25;3.70;;;27.10;99.90;;;;;;5029200;28;20535;-67
2022/07/08 12:30:28;;;;;;;5.00;3.70;;;28.00;99.90;;;;;;5030209;28;20730;-67
2022/07/08 12:32:59;;;;;;;4.07;3.67;;;28.60;99.90;;;;;;5031332;28;20268;-67
2022/07/08 12:35:34;;;;;;;3.88;3.40;;;28.60;99.90;;;;;;5031156;28;20183;-68
2022/07/08 12:38:08;;;;;;;4.43;3.78;;;28.50;99.90;;;;;;5031273;28;20179;-67
2022/07/08 12:40:41;;;;;;;4.45;3.70;;;28.50;99.90;;;;;;5031612;28;20172;-66
2022/07/08 12:43:09;;;;;;;6.05;3.53;;;28.10;99.90;;;;;;5030913;28;20683;-66
2022/07/08 12:45:35;;;;;;;6.97;4.07;;;28.10;99.90;;;;;;5031094;28;20230;-68
2022/07/08 12:48:02;;;;;;;9.98;3.58;;;28.10;99.90;;;;;;5031150;28;20631;-67